sensor_id;sensor_type;location;lat;lon;timestamp;pressure;altitude;pressure_sealevel;temperature;humidity
3832;BME280;12460;42.662;23.288;2023-03-26T00:01:51;94052.13;;;12.99;52.94
3832;BME280;12460;42.662;23.288;2023-03-26T00:16:55;94051.44;;;12.79;53.47
3832;BME280;12460;42.662;23.288;2023-03-26T00:32:00;94036.63;;;12.79;53.81
3832;BME280;12460;42.662;23.288;2023-03-26T00:47:05;94022.09;;;12.63;53.14
3832;BME280;12460;42.662;23.288;2023-03-26T01:02:13;94029.84;;;12.63;52.84
3832;BME280;12460;42.662;23.288;2023-03-26T01:17:23;94035.38;;;12.41;53.36
3832;BME280;12460;42.662;23.288;2023-03-26T01:47:40;94042.81;;;12.27;54.50
3832;BME280;12460;42.662;23.288;2023-03-26T02:03:21;94048.72;;;12.41;54.84
3832;BME280;12460;42.662;23.288;2023-03-26T02:18:32;94057.47;;;12.35;54.75
3832;BME280;12460;42.662;23.288;2023-03-26T02:33:39;94052.59;;;12.26;54.32
3832;BME280;12460;42.662;23.288;2023-03-26T02:48:44;94085.25;;;12.39;54.16
3832;BME280;12460;42.662;23.288;2023-03-26T03:03:55;94107.94;;;12.41;54.43
3832;BME280;12460;42.662;23.288;2023-03-26T03:19:09;94108.41;;;12.18;54.70
3832;BME280;12460;42.662;23.288;2023-03-26T03:34:14;94095.72;;;11.71;55.44
3832;BME280;12460;42.662;23.288;2023-03-26T03:49:24;94078.72;;;11.33;57.00
3832;BME280;12460;42.662;23.288;2023-03-26T04:04:32;94095.94;;;11.10;57.51
3832;BME280;12460;42.662;23.288;2023-03-26T04:19:39;94144.38;;;11.09;57.54
3832;BME280;12460;42.662;23.288;2023-03-26T04:34:45;94176.84;;;11.19;57.28
3832;BME280;12460;42.662;23.288;2023-03-26T04:49:51;94204.50;;;11.40;56.94
3832;BME280;12460;42.662;23.288;2023-03-26T05:04:56;94212.72;;;13.14;53.08
3832;BME280;12460;42.662;23.288;2023-03-26T05:20:05;94220.66;;;20.68;36.41
3832;BME280;12460;42.662;23.288;2023-03-26T05:35:10;94209.28;;;22.62;32.03
3832;BME280;12460;42.662;23.288;2023-03-26T05:50:16;94227.88;;;22.61;31.46
3832;BME280;12460;42.662;23.288;2023-03-26T06:05:22;94221.31;;;22.58;31.30
3832;BME280;12460;42.662;23.288;2023-03-26T06:20:41;94211.72;;;23.30;29.63
3832;BME280;12460;42.662;23.288;2023-03-26T06:35:57;94198.72;;;23.71;28.77
3832;BME280;12460;42.662;23.288;2023-03-26T06:51:02;94208.94;;;24.19;27.31
3832;BME280;12460;42.662;23.288;2023-03-26T07:06:26;94220.72;;;23.84;27.56
3832;BME280;12460;42.662;23.288;2023-03-26T07:22:00;94223.34;;;23.99;27.40
3832;BME280;12460;42.662;23.288;2023-03-26T07:37:47;94222.38;;;24.60;26.22
3832;BME280;12460;42.662;23.288;2023-03-26T07:53:25;94205.59;;;25.27;23.99
3832;BME280;12460;42.662;23.288;2023-03-26T08:24:32;94199.50;;;26.30;22.27
3832;BME280;12460;42.662;23.288;2023-03-26T08:39:41;94204.88;;;26.12;22.27
3832;BME280;12460;42.662;23.288;2023-03-26T09:10:25;94200.56;;;27.12;21.24
3832;BME280;12460;42.662;23.288;2023-03-26T09:57:16;94170.56;;;28.63;18.96
3832;BME280;12460;42.662;23.288;2023-03-26T10:12:36;94150.69;;;27.91;19.58
3832;BME280;12460;42.662;23.288;2023-03-26T10:27:56;94118.28;;;28.51;18.75
3832;BME280;12460;42.662;23.288;2023-03-26T10:43:42;94101.66;;;27.53;18.69
3832;BME280;12460;42.662;23.288;2023-03-26T10:58:35;94078.00;;;28.15;17.06
3832;BME280;12460;42.662;23.288;2023-03-26T11:44:42;94027.38;;;26.76;16.82
3832;BME280;12460;42.662;23.288;2023-03-26T11:59:57;93981.00;;;25.93;17.96
3832;BME280;12460;42.662;23.288;2023-03-26T12:15:17;93958.81;;;25.65;17.58
3832;BME280;12460;42.662;23.288;2023-03-26T12:30:25;93934.78;;;25.21;18.25
3832;BME280;12460;42.662;23.288;2023-03-26T12:45:37;93900.94;;;24.58;17.57
3832;BME280;12460;42.662;23.288;2023-03-26T13:31:26;93897.06;;;23.17;16.69
3832;BME280;12460;42.662;23.288;2023-03-26T13:46:44;93883.38;;;22.25;17.49
3832;BME280;12460;42.662;23.288;2023-03-26T14:01:56;93874.50;;;21.74;17.86
3832;BME280;12460;42.662;23.288;2023-03-26T14:17:17;93853.03;;;21.14;18.92
3832;BME280;12460;42.662;23.288;2023-03-26T14:32:44;93852.16;;;20.72;20.28
3832;BME280;12460;42.662;23.288;2023-03-26T15:35:12;93851.34;;;19.15;22.77
3832;BME280;12460;42.662;23.288;2023-03-26T15:50:47;93850.91;;;18.73;24.02
3832;BME280;12460;42.662;23.288;2023-03-26T16:21:33;93871.09;;;18.03;25.06
3832;BME280;12460;42.662;23.288;2023-03-26T16:36:41;93880.28;;;17.59;25.61
3832;BME280;12460;42.662;23.288;2023-03-26T16:51:59;93880.50;;;17.22;26.73
3832;BME280;12460;42.662;23.288;2023-03-26T17:22:38;93876.81;;;16.40;28.61
3832;BME280;12460;42.662;23.288;2023-03-26T17:53:33;93873.75;;;15.97;30.75
3832;BME280;12460;42.662;23.288;2023-03-26T18:09:10;93872.25;;;15.71;30.90
3832;BME280;12460;42.662;23.288;2023-03-26T18:24:30;93870.88;;;15.47;32.14
3832;BME280;12460;42.662;23.288;2023-03-26T18:39:37;93856.97;;;15.28;31.63
3832;BME280;12460;42.662;23.288;2023-03-26T18:54:45;93832.41;;;15.07;32.53
3832;BME280;12460;42.662;23.288;2023-03-26T19:09:52;93813.50;;;14.75;32.95
3832;BME280;12460;42.662;23.288;2023-03-26T19:25:00;93805.03;;;14.40;33.75
3832;BME280;12460;42.662;23.288;2023-03-26T19:40:21;93774.03;;;14.19;34.73
3832;BME280;12460;42.662;23.288;2023-03-26T19:55:33;93764.91;;;14.09;34.93
3832;BME280;12460;42.662;23.288;2023-03-26T20:10:38;93764.78;;;13.84;35.34
3832;BME280;12460;42.662;23.288;2023-03-26T20:25:48;93747.78;;;13.61;34.03
3832;BME280;12460;42.662;23.288;2023-03-26T20:40:55;93740.78;;;13.50;34.06
3832;BME280;12460;42.662;23.288;2023-03-26T20:56:00;93738.66;;;13.51;34.91
3832;BME280;12460;42.662;23.288;2023-03-26T21:11:27;93739.97;;;13.26;35.48
3832;BME280;12460;42.662;23.288;2023-03-26T21:26:41;93726.22;;;13.00;35.85
3832;BME280;12460;42.662;23.288;2023-03-26T21:41:49;93704.53;;;12.81;36.25
3832;BME280;12460;42.662;23.288;2023-03-26T22:12:23;93661.94;;;12.44;37.79
3832;BME280;12460;42.662;23.288;2023-03-26T22:27:28;93640.97;;;12.36;38.49
3832;BME280;12460;42.662;23.288;2023-03-26T22:42:36;93614.53;;;12.20;39.35
3832;BME280;12460;42.662;23.288;2023-03-26T22:57:41;93598.69;;;12.15;39.83
3832;BME280;12460;42.662;23.288;2023-03-26T23:12:45;93574.84;;;11.95;39.62
3832;BME280;12460;42.662;23.288;2023-03-26T23:27:49;93550.34;;;11.97;40.55
3832;BME280;12460;42.662;23.288;2023-03-26T23:42:54;93547.16;;;12.03;40.56
3832;BME280;12460;42.662;23.288;2023-03-26T23:57:58;93535.25;;;11.93;40.11
